aviador You're here:

PAYA Decoded Metar

YAKUTAT in AK, USA
Report Time2017-07-24 15:53:00
UTC Time2017-07-24 16:47:45
Flight Rules ifr IFR
WindCalm
Visibility9999 m
Phenomena:N/A
Clouds:Overcast 006 Hf
Expected CloudBase > 400 ft AGL from Temp-Dew spread
Ceiling600 ft
Temp14°C (ISA -1)
Dew Point13°C (94% RH)
QNH1022 hPa
Density Alt-177 ft
Elevation36 ft
Report Wrong Elevation
Raw Report
PAYA 241553Z AUTO 00000KT 10SM OVC006 14/13 A3019 RMK AO2 CIG
005V009 SLP223 T01390128 TSNO=

Extra information for PAYA:More info

Metar Taf Metar & Taf Last 4 Metars F.Rules Stats Wind Profile Meteogram Temp Stats Airport Information Weather charts Add Link Nearby VenuesMetar ALERT Operation Metar Decoded Social comments

AIRNAV info for PAYA